createdAt,value
2023-01-19T00:00:08.800Z,10.50
2023-01-19T00:02:35.750Z,10.50
2023-01-19T00:05:04.101Z,10.30
2023-01-19T00:07:31.870Z,10.40
2023-01-19T00:09:59.121Z,10.30
2023-01-19T00:12:26.425Z,10.30
2023-01-19T00:14:53.231Z,10.30
2023-01-19T00:17:20.164Z,10.30
2023-01-19T00:19:47.039Z,10.30
2023-01-19T00:22:13.909Z,10.30
2023-01-19T00:24:40.772Z,10.40
2023-01-19T00:27:07.612Z,10.40
2023-01-19T00:29:34.490Z,10.40
2023-01-19T00:32:01.930Z,10.40
2023-01-19T00:34:36.828Z,10.40
2023-01-19T00:37:04.495Z,10.50
2023-01-19T00:39:31.315Z,10.40
2023-01-19T00:42:16.626Z,10.40
2023-01-19T00:44:43.569Z,10.40
2023-01-19T00:47:10.483Z,10.50
2023-01-19T00:49:37.334Z,10.50
2023-01-19T00:52:04.560Z,10.50
2023-01-19T00:54:31.438Z,10.50
2023-01-19T00:56:58.400Z,10.50
2023-01-19T00:59:25.916Z,10.50
2023-01-19T01:01:53.071Z,10.60
2023-01-19T01:04:20.335Z,10.50
2023-01-19T01:06:47.325Z,10.50
2023-01-19T01:09:14.345Z,10.60
2023-01-19T01:11:42.651Z,10.60
2023-01-19T01:14:11.734Z,10.60
2023-01-19T01:16:38.861Z,10.60
2023-01-19T01:19:05.809Z,10.60
2023-01-19T01:21:34.632Z,10.60
2023-01-19T01:24:02.347Z,10.60
2023-01-19T01:26:29.319Z,10.60
2023-01-19T01:28:56.203Z,10.60
2023-01-19T01:31:23.077Z,10.50
2023-01-19T01:33:49.979Z,10.50
2023-01-19T01:36:19.008Z,10.50
2023-01-19T01:38:45.847Z,10.40
2023-01-19T01:41:12.926Z,10.40
2023-01-19T01:43:53.557Z,10.30
2023-01-19T01:46:20.940Z,10.30
2023-01-19T01:49:12.664Z,10.20
2023-01-19T01:51:54.308Z,10.20
2023-01-19T01:54:29.134Z,10.10
2023-01-19T01:57:00.739Z,10.10
2023-01-19T01:59:34.747Z,10.10
2023-01-19T02:02:24.262Z,10.00
2023-01-19T02:04:56.144Z,10.00
2023-01-19T02:07:50.270Z,9.90
2023-01-19T02:10:36.967Z,9.90
2023-01-19T02:13:22.602Z,9.90
2023-01-19T02:15:51.825Z,9.80
2023-01-19T02:18:20.683Z,9.90
2023-01-19T02:21:11.239Z,9.90
2023-01-19T02:23:39.214Z,9.90
2023-01-19T02:26:07.521Z,9.90
2023-01-19T02:28:34.562Z,9.90
2023-01-19T02:31:01.494Z,9.90
2023-01-19T02:33:28.458Z,9.90
2023-01-19T02:35:56.898Z,9.90
2023-01-19T02:38:27.295Z,9.90
2023-01-19T02:40:58.029Z,9.90
2023-01-19T02:43:25.606Z,9.90
2023-01-19T02:45:52.738Z,10.00
2023-01-19T02:48:21.244Z,10.00
2023-01-19T02:50:53.098Z,10.00
2023-01-19T02:53:47.395Z,10.00
2023-01-19T02:56:40.007Z,10.10
2023-01-19T02:59:33.281Z,10.10
2023-01-19T03:02:26.776Z,10.10
2023-01-19T03:05:29.575Z,10.10
2023-01-19T03:08:02.444Z,10.10
2023-01-19T03:10:42.876Z,10.00
2023-01-19T03:13:35.549Z,10.00
2023-01-19T03:16:25.644Z,10.00
2023-01-19T03:18:56.009Z,10.00
2023-01-19T03:21:26.417Z,10.00
2023-01-19T03:23:57.998Z,9.90
2023-01-19T03:26:29.943Z,9.90
2023-01-19T03:29:02.290Z,9.90
2023-01-19T03:31:32.068Z,9.80
2023-01-19T03:34:05.740Z,9.70
2023-01-19T03:36:40.605Z,9.70
2023-01-19T03:39:09.806Z,9.70
2023-01-19T03:41:39.414Z,9.70
2023-01-19T03:44:06.885Z,9.70
2023-01-19T03:46:34.692Z,9.70
2023-01-19T03:49:01.780Z,9.70
2023-01-19T03:51:28.739Z,9.70
2023-01-19T03:53:55.587Z,9.70
2023-01-19T03:56:24.817Z,9.70
2023-01-19T03:58:51.999Z,9.70
2023-01-19T04:01:23.347Z,9.70
2023-01-19T04:03:51.848Z,9.70
2023-01-19T04:06:20.151Z,9.70
2023-01-19T04:08:51.096Z,9.70
2023-01-19T04:11:18.587Z,9.70
2023-01-19T04:13:45.445Z,9.70
2023-01-19T04:16:12.708Z,9.70
2023-01-19T04:18:42.216Z,9.70
2023-01-19T04:21:09.220Z,9.70
2023-01-19T04:23:36.970Z,9.70
2023-01-19T04:26:08.967Z,9.70
2023-01-19T04:28:39.443Z,9.70
2023-01-19T04:31:07.110Z,9.80
2023-01-19T04:33:34.586Z,9.80
2023-01-19T04:36:01.828Z,9.80
2023-01-19T04:38:28.724Z,9.70
2023-01-19T04:40:56.027Z,9.70
2023-01-19T04:43:23.610Z,9.60
2023-01-19T04:45:50.833Z,9.50
2023-01-19T04:48:18.925Z,9.50
2023-01-19T04:50:46.073Z,9.40
2023-01-19T04:53:13.813Z,9.40
2023-01-19T04:55:41.016Z,9.30
2023-01-19T04:58:07.944Z,9.30
2023-01-19T05:00:34.915Z,9.30
2023-01-19T05:03:02.366Z,9.30
2023-01-19T05:05:29.853Z,9.30
2023-01-19T05:07:57.019Z,9.30
2023-01-19T05:10:24.113Z,9.20
2023-01-19T05:12:51.444Z,9.20
2023-01-19T05:15:18.549Z,9.20
2023-01-19T05:17:45.895Z,9.20
2023-01-19T05:20:16.123Z,9.30
2023-01-19T05:22:43.836Z,9.30
2023-01-19T05:25:10.691Z,9.30
2023-01-19T05:27:38.682Z,9.40
2023-01-19T05:30:06.682Z,9.40
2023-01-19T05:32:33.613Z,9.40
2023-01-19T05:35:00.614Z,9.50
2023-01-19T05:37:27.544Z,9.50
2023-01-19T05:39:54.868Z,9.50
2023-01-19T05:42:21.718Z,9.50
2023-01-19T05:44:48.685Z,9.50
2023-01-19T05:47:15.665Z,9.40
2023-01-19T05:49:42.512Z,9.30
2023-01-19T05:52:09.489Z,9.30
2023-01-19T05:54:36.400Z,9.20
2023-01-19T05:57:04.535Z,9.10
2023-01-19T05:59:31.330Z,9.10
2023-01-19T06:02:00.007Z,9.00
2023-01-19T06:04:27.008Z,8.90
2023-01-19T06:06:53.882Z,8.90
2023-01-19T06:09:20.746Z,8.80
2023-01-19T06:11:47.639Z,8.80
2023-01-19T06:14:14.527Z,8.70
2023-01-19T06:16:41.815Z,8.70
2023-01-19T06:19:08.719Z,8.70
2023-01-19T06:21:35.558Z,8.60
2023-01-19T06:24:03.621Z,8.60
2023-01-19T06:26:30.511Z,8.60
2023-01-19T06:28:57.447Z,8.60
2023-01-19T06:31:24.358Z,8.60
2023-01-19T06:33:51.780Z,8.60
2023-01-19T06:36:18.637Z,8.70
2023-01-19T06:38:45.510Z,8.70
2023-01-19T06:41:12.328Z,8.70
2023-01-19T06:43:39.242Z,8.70
2023-01-19T06:46:06.348Z,8.70
2023-01-19T06:48:33.239Z,8.70
2023-01-19T06:51:00.098Z,8.80
2023-01-19T06:53:28.499Z,8.80
2023-01-19T06:55:59.934Z,8.80
2023-01-19T06:58:28.518Z,8.90
2023-01-19T07:00:56.337Z,8.90
2023-01-19T07:03:23.843Z,9.00
2023-01-19T07:05:54.145Z,9.00
2023-01-19T07:08:21.459Z,9.00
2023-01-19T07:11:25.799Z,9.10
2023-01-19T07:13:37.387Z,9.20
2023-01-19T07:16:09.080Z,9.10
2023-01-19T07:18:37.492Z,9.20
2023-01-19T07:21:04.854Z,9.20
2023-01-19T07:23:31.861Z,9.20
2023-01-19T07:26:01.758Z,9.20
2023-01-19T07:28:29.738Z,9.30
2023-01-19T07:30:56.758Z,9.30
2023-01-19T07:33:26.207Z,9.30
2023-01-19T07:35:53.618Z,9.30
2023-01-19T07:38:21.428Z,9.30
2023-01-19T07:40:48.346Z,9.30
2023-01-19T07:43:15.874Z,9.30
2023-01-19T07:45:43.427Z,9.40
2023-01-19T07:48:10.381Z,9.40
2023-01-19T07:50:37.293Z,9.40
2023-01-19T07:53:08.880Z,9.50
2023-01-19T07:55:36.367Z,9.50
2023-01-19T07:58:06.677Z,9.50
2023-01-19T08:00:35.746Z,9.60
2023-01-19T08:03:04.412Z,9.60
2023-01-19T08:05:33.219Z,9.70
2023-01-19T08:08:00.659Z,9.80
2023-01-19T08:10:28.647Z,10.00
2023-01-19T08:12:56.847Z,10.20
2023-01-19T08:15:24.941Z,10.40
2023-01-19T08:18:02.834Z,10.60
2023-01-19T08:20:30.076Z,10.70
2023-01-19T08:23:00.453Z,10.70
2023-01-19T08:25:34.408Z,10.70
2023-01-19T08:28:02.255Z,10.70
2023-01-19T08:30:30.368Z,10.70
2023-01-19T08:33:18.243Z,10.60
2023-01-19T08:35:49.111Z,10.60
2023-01-19T08:38:16.942Z,10.50
2023-01-19T08:40:44.333Z,10.60
2023-01-19T08:43:16.557Z,10.60
2023-01-19T08:45:49.588Z,10.60
2023-01-19T08:48:19.207Z,10.60
2023-01-19T08:50:47.814Z,10.70
2023-01-19T08:53:15.129Z,10.80
2023-01-19T08:55:42.534Z,10.90
2023-01-19T08:58:09.873Z,11.00
2023-01-19T09:00:39.014Z,11.20
2023-01-19T09:03:08.681Z,11.40
2023-01-19T09:05:38.822Z,11.60
2023-01-19T09:08:09.317Z,11.90
2023-01-19T09:10:37.946Z,12.10
2023-01-19T09:13:08.659Z,12.30
2023-01-19T09:15:37.872Z,12.40
2023-01-19T09:18:07.367Z,12.50
2023-01-19T09:20:36.238Z,12.50
2023-01-19T09:23:03.199Z,12.50
2023-01-19T09:25:30.398Z,12.40
2023-01-19T09:27:59.326Z,12.40
2023-01-19T09:30:27.951Z,12.30
2023-01-19T09:32:55.034Z,12.30
2023-01-19T09:35:22.036Z,12.20
2023-01-19T09:37:48.981Z,12.20
2023-01-19T09:40:23.411Z,12.10
2023-01-19T09:43:16.358Z,12.00
2023-01-19T09:45:55.394Z,12.00
2023-01-19T09:48:40.974Z,11.90
2023-01-19T09:51:14.004Z,12.00
2023-01-19T09:53:40.877Z,11.90
2023-01-19T09:56:20.099Z,11.90
2023-01-19T09:58:51.157Z,11.90
2023-01-19T10:01:50.753Z,11.90
2023-01-19T10:04:48.025Z,11.80
2023-01-19T10:07:39.606Z,11.80
2023-01-19T10:10:20.376Z,11.80
2023-01-19T10:13:20.435Z,11.70
2023-01-19T10:16:02.625Z,11.70
2023-01-19T10:18:47.589Z,11.70
2023-01-19T10:21:19.657Z,11.70
2023-01-19T10:24:09.999Z,11.70
2023-01-19T10:26:52.976Z,11.60
2023-01-19T10:29:30.552Z,11.60
2023-01-19T10:32:22.162Z,11.60
2023-01-19T10:34:50.623Z,11.60
2023-01-19T10:37:25.528Z,11.70
2023-01-19T10:39:54.896Z,11.70
2023-01-19T10:42:21.950Z,11.80
2023-01-19T10:44:49.936Z,11.80
2023-01-19T10:47:21.248Z,11.90
2023-01-19T10:49:49.136Z,11.90
2023-01-19T10:52:31.039Z,11.90
2023-01-19T10:55:00.198Z,11.90
2023-01-19T10:57:38.384Z,12.00
2023-01-19T11:00:29.448Z,12.00
2023-01-19T11:02:56.633Z,12.00
2023-01-19T11:05:26.596Z,12.20
2023-01-19T11:07:53.476Z,12.20
2023-01-19T11:10:30.925Z,12.30
2023-01-19T11:13:15.884Z,12.30
2023-01-19T11:15:49.018Z,12.30
2023-01-19T11:18:29.071Z,12.40
2023-01-19T11:21:16.640Z,12.50
2023-01-19T11:23:53.074Z,12.50
2023-01-19T11:26:29.162Z,12.50
2023-01-19T11:28:58.518Z,12.60
2023-01-19T11:31:28.280Z,12.70
2023-01-19T11:33:59.704Z,12.80
2023-01-19T11:36:27.767Z,12.90
2023-01-19T11:38:56.868Z,12.90
2023-01-19T11:41:29.070Z,13.00
2023-01-19T11:44:00.242Z,13.00
2023-01-19T11:46:34.590Z,13.00
2023-01-19T11:49:12.847Z,13.00
2023-01-19T11:51:54.400Z,13.00
2023-01-19T11:54:27.324Z,13.00
2023-01-19T11:56:56.767Z,13.10
2023-01-19T11:59:25.163Z,13.00
2023-01-19T12:01:59.213Z,13.00
2023-01-19T12:04:28.809Z,13.00
2023-01-19T12:06:57.366Z,13.00
2023-01-19T12:09:29.198Z,12.90
2023-01-19T12:12:08.986Z,12.80
2023-01-19T12:14:50.139Z,12.90
2023-01-19T12:17:48.696Z,12.80
2023-01-19T12:20:48.001Z,12.80
2023-01-19T12:23:46.835Z,12.80
2023-01-19T12:26:25.034Z,12.80
2023-01-19T12:28:53.250Z,12.80
2023-01-19T12:31:22.593Z,12.80
2023-01-19T12:33:50.376Z,12.80
2023-01-19T12:36:17.194Z,12.80
2023-01-19T12:38:50.977Z,12.80
2023-01-19T12:41:25.383Z,12.80
2023-01-19T12:44:14.812Z,12.70
2023-01-19T12:46:42.460Z,12.60
2023-01-19T12:49:18.216Z,12.60
2023-01-19T12:51:45.892Z,12.50
2023-01-19T12:54:28.883Z,12.50
2023-01-19T12:57:08.028Z,12.50
2023-01-19T12:59:39.277Z,12.40
2023-01-19T13:02:21.090Z,12.40
2023-01-19T13:05:06.552Z,12.40
2023-01-19T13:08:02.692Z,12.30
2023-01-19T13:10:54.447Z,12.30
2023-01-19T13:13:24.530Z,12.20
2023-01-19T13:15:54.789Z,12.10
2023-01-19T13:18:28.677Z,12.10
2023-01-19T13:21:04.593Z,12.00
2023-01-19T13:23:52.448Z,11.90
2023-01-19T13:26:24.652Z,11.70
2023-01-19T13:28:59.023Z,11.70
2023-01-19T13:31:27.295Z,11.60
2023-01-19T13:33:56.354Z,11.50
2023-01-19T13:36:26.794Z,11.50
2023-01-19T13:38:55.640Z,11.40
2023-01-19T13:41:25.795Z,11.40
2023-01-19T13:44:00.208Z,11.30
2023-01-19T13:46:28.177Z,11.30
2023-01-19T13:49:00.073Z,11.20
2023-01-19T13:51:27.299Z,11.20
2023-01-19T13:53:58.874Z,11.20
2023-01-19T13:56:29.004Z,11.20
2023-01-19T13:59:01.244Z,11.10
2023-01-19T14:01:29.550Z,11.00
2023-01-19T14:03:57.207Z,10.90
2023-01-19T14:06:44.313Z,10.90
2023-01-19T14:09:19.510Z,10.80
2023-01-19T14:12:04.300Z,10.80
2023-01-19T14:14:31.485Z,10.80
2023-01-19T14:17:00.758Z,10.70
2023-01-19T14:19:28.550Z,10.60
2023-01-19T14:22:03.679Z,10.50
2023-01-19T14:24:33.345Z,10.40
2023-01-19T14:27:29.387Z,10.30
2023-01-19T14:30:20.617Z,10.10
2023-01-19T14:32:47.819Z,10.10
2023-01-19T14:35:23.531Z,10.00
2023-01-19T14:37:52.438Z,10.00
2023-01-19T14:40:21.243Z,9.90
2023-01-19T14:43:08.576Z,9.90
2023-01-19T14:45:41.380Z,9.90
2023-01-19T14:48:20.617Z,9.90
2023-01-19T14:51:02.338Z,9.90
2023-01-19T14:53:38.857Z,9.90
2023-01-19T14:56:06.848Z,9.90
2023-01-19T14:58:35.273Z,9.90
2023-01-19T15:01:02.947Z,9.90
2023-01-19T15:03:43.348Z,9.90
2023-01-19T15:06:20.305Z,10.00
2023-01-19T15:08:49.998Z,10.00
2023-01-19T15:11:35.309Z,10.00
2023-01-19T15:14:03.002Z,10.00
2023-01-19T15:16:32.965Z,10.00
2023-01-19T15:19:00.043Z,10.00
2023-01-19T15:21:27.019Z,10.00
2023-01-19T15:23:54.791Z,10.00
2023-01-19T15:26:24.804Z,10.00
2023-01-19T15:28:52.008Z,10.00
2023-01-19T15:31:21.936Z,10.00
2023-01-19T15:33:48.884Z,10.00
2023-01-19T15:36:18.302Z,10.00
2023-01-19T15:38:45.747Z,10.00
2023-01-19T15:41:30.029Z,10.00
2023-01-19T15:43:57.490Z,10.00
2023-01-19T15:46:25.845Z,10.00
2023-01-19T15:48:54.873Z,10.00
2023-01-19T15:51:25.577Z,10.00
2023-01-19T15:53:53.243Z,10.10
2023-01-19T15:56:23.501Z,10.00
2023-01-19T15:58:50.958Z,10.00
2023-01-19T16:01:21.811Z,10.00
2023-01-19T16:03:49.037Z,10.00
2023-01-19T16:06:19.240Z,9.90
2023-01-19T16:08:46.179Z,9.90
2023-01-19T16:11:15.352Z,9.90
2023-01-19T16:13:46.272Z,9.90
2023-01-19T16:16:19.547Z,9.90
2023-01-19T16:18:46.596Z,9.90
2023-01-19T16:21:13.471Z,9.90
2023-01-19T16:23:40.360Z,9.90
2023-01-19T16:26:22.700Z,9.90
2023-01-19T16:28:49.587Z,9.90
2023-01-19T16:31:16.730Z,9.90
2023-01-19T16:33:45.281Z,9.90
2023-01-19T16:36:23.778Z,9.90
2023-01-19T16:38:50.765Z,9.80
2023-01-19T16:41:18.052Z,9.80
2023-01-19T16:43:49.534Z,9.80
2023-01-19T16:46:24.992Z,9.80
2023-01-19T16:48:52.780Z,9.80
2023-01-19T16:51:20.291Z,9.70
2023-01-19T16:53:49.853Z,9.70
2023-01-19T16:56:17.243Z,9.70
2023-01-19T16:58:44.333Z,9.70
2023-01-19T17:01:19.586Z,9.70
2023-01-19T17:03:47.373Z,9.70
2023-01-19T17:06:22.709Z,9.70
2023-01-19T17:08:51.338Z,9.70
2023-01-19T17:11:29.507Z,9.70
2023-01-19T17:14:02.073Z,9.70
2023-01-19T17:16:31.439Z,9.70
2023-01-19T17:18:59.872Z,9.70
2023-01-19T17:21:27.177Z,9.70
2023-01-19T17:23:55.814Z,9.70
2023-01-19T17:26:25.344Z,9.60
2023-01-19T17:28:52.182Z,9.60
2023-01-19T17:31:21.281Z,9.60
2023-01-19T17:33:50.186Z,9.60
2023-01-19T17:36:23.114Z,9.60
2023-01-19T17:38:50.470Z,9.60
2023-01-19T17:41:20.101Z,9.60
2023-01-19T17:43:47.123Z,9.60
2023-01-19T17:46:14.202Z,9.50
2023-01-19T17:48:41.135Z,9.50
2023-01-19T17:51:10.576Z,9.50
2023-01-19T17:53:40.427Z,9.50
2023-01-19T17:56:09.910Z,9.40
2023-01-19T17:58:37.203Z,9.40
2023-01-19T18:01:18.579Z,9.40
2023-01-19T18:03:46.102Z,9.40
2023-01-19T18:06:13.226Z,9.40
2023-01-19T18:08:42.063Z,9.40
2023-01-19T18:11:10.427Z,9.40
2023-01-19T18:13:38.413Z,9.40
2023-01-19T18:16:14.710Z,9.30
2023-01-19T18:18:42.221Z,9.30
2023-01-19T18:21:11.205Z,9.30
2023-01-19T18:23:38.851Z,9.30
2023-01-19T18:26:11.057Z,9.30
2023-01-19T18:28:38.100Z,9.20
2023-01-19T18:31:10.103Z,9.30
2023-01-19T18:33:38.865Z,9.30
2023-01-19T18:36:06.393Z,9.30
2023-01-19T18:38:33.818Z,9.30
2023-01-19T18:41:10.255Z,9.30
2023-01-19T18:43:37.311Z,9.30
2023-01-19T18:46:04.475Z,9.30
2023-01-19T18:48:31.437Z,9.40
2023-01-19T18:51:03.287Z,9.40
2023-01-19T18:53:31.880Z,9.40
2023-01-19T18:56:01.946Z,9.40
2023-01-19T18:58:30.076Z,9.40
2023-01-19T19:00:57.711Z,9.50
2023-01-19T19:03:24.964Z,9.50
2023-01-19T19:05:52.309Z,9.50
2023-01-19T19:08:19.257Z,9.50
2023-01-19T19:10:46.342Z,9.50
2023-01-19T19:13:15.389Z,9.50
2023-01-19T19:15:44.335Z,9.50
2023-01-19T19:18:13.871Z,9.50
2023-01-19T19:20:42.213Z,9.50
2023-01-19T19:23:09.896Z,9.50
2023-01-19T19:25:36.838Z,9.50
2023-01-19T19:28:04.210Z,9.50
2023-01-19T19:30:32.948Z,9.50
2023-01-19T19:33:01.112Z,9.40
2023-01-19T19:35:28.257Z,9.40
2023-01-19T19:37:57.679Z,9.50
2023-01-19T19:40:26.181Z,9.50
2023-01-19T19:42:53.173Z,9.50
2023-01-19T19:45:20.191Z,9.50
2023-01-19T19:47:47.106Z,9.40
2023-01-19T19:50:14.477Z,9.50
2023-01-19T19:52:42.233Z,9.40
2023-01-19T19:55:10.594Z,9.50
2023-01-19T19:57:37.510Z,9.40
2023-01-19T20:00:05.348Z,9.40
2023-01-19T20:02:32.735Z,9.40
2023-01-19T20:04:59.719Z,9.40
2023-01-19T20:07:26.685Z,9.40
2023-01-19T20:09:55.142Z,9.40
2023-01-19T20:12:22.259Z,9.40
2023-01-19T20:14:49.297Z,9.40
2023-01-19T20:17:16.371Z,9.40
2023-01-19T20:19:43.884Z,9.40
2023-01-19T20:22:10.741Z,9.40
2023-01-19T20:24:37.621Z,9.40
2023-01-19T20:27:04.595Z,9.40
2023-01-19T20:29:31.499Z,9.40
2023-01-19T20:31:58.433Z,9.40
2023-01-19T20:34:30.449Z,9.40
2023-01-19T20:36:59.087Z,9.40
2023-01-19T20:39:26.006Z,9.40
2023-01-19T20:41:53.189Z,9.50
2023-01-19T20:44:23.350Z,9.50
2023-01-19T20:46:51.350Z,9.50
2023-01-19T20:49:18.346Z,9.50
2023-01-19T20:51:46.979Z,9.50
2023-01-19T20:54:17.113Z,9.50
2023-01-19T20:56:44.306Z,9.60
2023-01-19T20:59:12.554Z,9.50
2023-01-19T21:01:40.772Z,9.60
2023-01-19T21:04:08.532Z,9.60
2023-01-19T21:06:35.926Z,9.50
2023-01-19T21:09:03.297Z,9.50
2023-01-19T21:11:30.436Z,9.50
2023-01-19T21:13:57.311Z,9.50
2023-01-19T21:16:29.177Z,9.50
2023-01-19T21:18:56.170Z,9.50
2023-01-19T21:21:30.792Z,9.50
2023-01-19T21:23:59.899Z,9.50
2023-01-19T21:26:29.684Z,9.50
2023-01-19T21:29:00.583Z,9.50
2023-01-19T21:31:28.366Z,9.50
2023-01-19T21:33:58.679Z,9.50
2023-01-19T21:36:26.795Z,9.50
2023-01-19T21:39:00.104Z,9.50
2023-01-19T21:41:28.330Z,9.50
2023-01-19T21:43:55.353Z,9.40
2023-01-19T21:46:29.621Z,9.40
2023-01-19T21:49:02.067Z,9.40
2023-01-19T21:51:33.609Z,9.40
2023-01-19T21:54:01.705Z,9.30
2023-01-19T21:56:29.689Z,9.30
2023-01-19T21:58:57.902Z,9.30
2023-01-19T22:01:25.038Z,9.30
2023-01-19T22:03:57.552Z,9.20
2023-01-19T22:06:26.224Z,9.20
2023-01-19T22:08:54.094Z,9.20
2023-01-19T22:11:21.601Z,9.20
2023-01-19T22:13:48.688Z,9.30
2023-01-19T22:16:18.175Z,9.20
2023-01-19T22:18:49.200Z,9.20
2023-01-19T22:21:20.701Z,9.20
2023-01-19T22:23:57.534Z,9.20
2023-01-19T22:26:24.477Z,9.10
2023-01-19T22:28:59.653Z,9.20
2023-01-19T22:31:28.203Z,9.10
2023-01-19T22:33:55.947Z,9.10
2023-01-19T22:36:25.262Z,9.10
2023-01-19T22:38:53.165Z,9.10
2023-01-19T22:41:26.711Z,9.10
2023-01-19T22:43:55.601Z,9.00
2023-01-19T22:46:25.028Z,9.00
2023-01-19T22:48:52.582Z,9.00
2023-01-19T22:51:19.973Z,9.00
2023-01-19T22:53:47.213Z,9.00
2023-01-19T22:56:23.694Z,9.00
2023-01-19T22:58:51.152Z,8.90
2023-01-19T23:01:20.981Z,8.90
2023-01-19T23:03:47.989Z,9.00
2023-01-19T23:06:17.687Z,9.00
2023-01-19T23:08:45.132Z,8.90
2023-01-19T23:11:21.249Z,8.90
2023-01-19T23:13:48.319Z,8.90
2023-01-19T23:16:15.442Z,8.90
2023-01-19T23:18:42.537Z,8.90
2023-01-19T23:21:12.639Z,8.90
2023-01-19T23:23:39.567Z,8.90
2023-01-19T23:26:09.287Z,8.80
2023-01-19T23:28:39.652Z,8.70
2023-01-19T23:31:22.299Z,8.80
2023-01-19T23:33:50.691Z,8.70
2023-01-19T23:36:18.892Z,8.70
2023-01-19T23:38:56.957Z,8.70
2023-01-19T23:41:24.595Z,8.60
2023-01-19T23:43:52.159Z,8.60
2023-01-19T23:46:20.131Z,8.60
2023-01-19T23:48:47.301Z,8.60
2023-01-19T23:51:20.270Z,8.50
2023-01-19T23:53:47.460Z,8.50
2023-01-19T23:56:20.646Z,8.50
2023-01-19T23:58:52.463Z,8.50
